Time;durP1;ratioP1;P1;durP2;ratioP2;P2;SDS_P1;SDS_P2;PMS_P1;PMS_P2;Temp;Humidity;BMP_temperature;BMP_pressure;BME280_temperature;BME280_humidity;BME280_pressure;Samples;Min_cycle;Max_cycle;Signal;HPM_P1;HPM_P2
2022/11/26 00:02:26;;;;;;;23.45;13.43;;;21.90;62.30;;;;;;5051986;28;20032;-66
2022/11/26 00:04:53;;;;;;;19.90;12.38;;;21.90;62.20;;;;;;5050131;28;20390;-67
2022/11/26 00:07:25;;;;;;;25.25;13.38;;;21.90;62.20;;;;;;5051262;28;20048;-66
2022/11/26 00:09:52;;;;;;;23.25;12.98;;;21.90;62.10;;;;;;5069645;28;20032;-66
2022/11/26 00:12:23;;;;;;;19.15;13.43;;;21.90;62.00;;;;;;5063068;28;20057;-66
2022/11/26 00:14:50;;;;;;;18.42;12.70;;;21.90;62.00;;;;;;5050555;28;20049;-66
2022/11/26 00:17:17;;;;;;;24.48;12.77;;;22.00;61.70;;;;;;5048486;28;20075;-66
2022/11/26 00:19:44;;;;;;;21.88;12.35;;;22.10;61.80;;;;;;5070444;28;20442;-65
2022/11/26 00:22:30;;;;;;;23.20;13.40;;;22.10;61.70;;;;;;5069970;28;20028;-65
2022/11/26 00:24:56;;;;;;;21.25;13.18;;;22.00;61.50;;;;;;5050683;28;20047;-66
2022/11/26 00:27:25;;;;;;;22.73;13.50;;;22.00;61.40;;;;;;5063125;28;20039;-67
2022/11/26 00:29:52;;;;;;;20.88;12.90;;;22.00;61.40;;;;;;5074360;28;20037;-66
2022/11/26 00:32:20;;;;;;;20.20;11.63;;;22.00;61.50;;;;;;5073139;28;20064;-66
2022/11/26 00:34:47;;;;;;;24.65;13.02;;;21.90;61.50;;;;;;5074324;28;20037;-66
2022/11/26 00:37:28;;;;;;;17.80;12.82;;;21.90;61.70;;;;;;5068507;28;20033;-67
2022/11/26 00:39:56;;;;;;;23.98;12.77;;;21.80;61.30;;;;;;5061225;28;20029;-66
2022/11/26 00:42:22;;;;;;;22.77;12.15;;;21.90;61.40;;;;;;5038459;28;20028;-66
2022/11/26 00:44:48;;;;;;;21.20;12.85;;;21.90;61.50;;;;;;5036510;28;20063;-66
2022/11/26 00:47:14;;;;;;;18.85;11.98;;;21.90;61.60;;;;;;5071135;28;20454;-66
2022/11/26 00:49:40;;;;;;;22.05;13.25;;;21.70;61.40;;;;;;5074009;28;20595;-66
2022/11/26 00:52:26;;;;;;;23.77;13.23;;;21.80;61.50;;;;;;5071913;28;20108;-66
2022/11/26 00:54:52;;;;;;;21.35;11.75;;;21.80;61.50;;;;;;5053954;28;20028;-66
2022/11/26 00:57:18;;;;;;;24.55;13.57;;;21.90;61.30;;;;;;5056576;28;20025;-66
2022/11/26 00:59:44;;;;;;;20.77;11.88;;;21.90;61.30;;;;;;5053822;28;20033;-66
2022/11/26 01:02:10;;;;;;;22.35;12.73;;;21.90;61.30;;;;;;5069692;28;20106;-64
2022/11/26 01:04:36;;;;;;;21.48;13.13;;;21.80;61.30;;;;;;5073705;28;20033;-66
2022/11/26 01:07:02;;;;;;;22.88;12.02;;;21.90;61.10;;;;;;5070015;28;20036;-66
2022/11/26 01:09:28;;;;;;;19.92;12.15;;;21.90;61.10;;;;;;5053476;28;20477;-67
2022/11/26 01:11:54;;;;;;;22.35;13.02;;;21.90;61.00;;;;;;5056504;28;20035;-66
2022/11/26 01:14:21;;;;;;;19.75;12.10;;;21.90;61.00;;;;;;5053577;28;20028;-66
2022/11/26 01:16:55;;;;;;;18.23;12.90;;;21.90;61.10;;;;;;5067248;28;20036;-66
2022/11/26 01:19:21;;;;;;;21.50;12.68;;;22.00;60.90;;;;;;5073460;28;20035;-66
2022/11/26 01:21:46;;;;;;;19.83;11.40;;;22.00;60.70;;;;;;5068592;28;20020;-66
2022/11/26 01:24:12;;;;;;;21.17;12.45;;;22.00;60.80;;;;;;5053470;28;20564;-66
2022/11/26 01:26:42;;;;;;;19.77;12.30;;;22.00;60.70;;;;;;5054620;28;20033;-67
2022/11/26 01:29:16;;;;;;;22.20;11.82;;;22.00;60.60;;;;;;5054232;28;20033;-66
2022/11/26 01:31:42;;;;;;;18.40;9.90;;;21.90;60.30;;;;;;5065024;28;20086;-67
2022/11/26 01:34:08;;;;;;;21.15;11.70;;;21.80;60.60;;;;;;5069055;28;20634;-67
2022/11/26 01:36:36;;;;;;;19.65;11.32;;;22.00;60.40;;;;;;5060091;28;20042;-66
2022/11/26 01:39:18;;;;;;;20.27;11.90;;;21.90;60.60;;;;;;5072068;28;20465;-66
2022/11/26 01:41:57;;;;;;;19.48;11.68;;;22.00;60.30;;;;;;5071850;28;20037;-66
2022/11/26 01:44:27;;;;;;;17.85;11.45;;;21.90;60.60;;;;;;5053269;28;20386;-66
2022/11/26 01:46:53;;;;;;;22.98;13.63;;;21.90;61.00;;;;;;5067777;28;20131;-66
2022/11/26 01:49:28;;;;;;;17.95;11.25;;;21.90;60.60;;;;;;5072879;28;20123;-67
2022/11/26 01:52:20;;;;;;;20.95;11.38;;;21.70;60.60;;;;;;5070895;28;20079;-66
2022/11/26 01:54:47;;;;;;;18.85;11.68;;;21.80;60.60;;;;;;5064929;28;20025;-66
2022/11/26 01:57:27;;;;;;;20.58;12.00;;;21.70;60.60;;;;;;5064476;28;20420;-66
2022/11/26 02:00:00;;;;;;;19.77;12.07;;;21.70;60.70;;;;;;5052766;28;20033;-67
2022/11/26 02:02:28;;;;;;;20.55;11.48;;;21.70;60.90;;;;;;5069543;28;20123;-66
2022/11/26 02:05:16;;;;;;;18.30;11.30;;;21.50;60.60;;;;;;5052525;28;20115;-66
2022/11/26 02:07:42;;;;;;;21.35;12.20;;;21.60;60.60;;;;;;5055252;28;20409;-66
2022/11/26 02:10:08;;;;;;;20.17;13.25;;;21.60;60.80;;;;;;5053158;28;20045;-67
2022/11/26 02:12:35;;;;;;;26.75;13.75;;;21.70;60.50;;;;;;5055279;28;20033;-67
2022/11/26 02:15:01;;;;;;;23.70;12.75;;;21.70;60.60;;;;;;5065347;28;20115;-66
2022/11/26 02:17:36;;;;;;;21.85;12.70;;;21.80;60.30;;;;;;5071764;28;20111;-66
2022/11/26 02:20:23;;;;;;;20.90;11.48;;;21.70;60.50;;;;;;5072173;28;20039;-66
2022/11/26 02:22:58;;;;;;;21.25;11.48;;;21.70;60.20;;;;;;5053734;28;20174;-66
2022/11/26 02:25:39;;;;;;;20.88;12.65;;;21.80;60.20;;;;;;5052215;28;20060;-66
2022/11/26 02:28:11;;;;;;;20.35;11.50;;;21.90;60.10;;;;;;5056707;28;20037;-66
2022/11/26 02:30:46;;;;;;;22.48;12.10;;;21.90;60.30;;;;;;5058459;28;20389;-66
2022/11/26 02:33:21;;;;;;;20.13;11.52;;;21.90;60.10;;;;;;5061965;28;20112;-66
2022/11/26 02:36:06;;;;;;;21.02;12.95;;;22.00;59.90;;;;;;5070375;28;20036;-67
2022/11/26 02:38:35;;;;;;;19.42;11.60;;;22.00;59.60;;;;;;5023987;28;20135;-66
2022/11/26 02:41:01;;;;;;;21.60;11.80;;;21.90;59.80;;;;;;5052023;28;20032;-66
2022/11/26 02:43:28;;;;;;;21.30;12.40;;;21.80;59.60;;;;;;5053506;28;20041;-66
2022/11/26 02:46:06;;;;;;;19.00;11.65;;;21.80;59.30;;;;;;5059175;28;20613;-67
2022/11/26 02:48:37;;;;;;;18.85;11.43;;;22.00;59.40;;;;;;5070694;28;20098;-66
2022/11/26 02:51:10;;;;;;;21.60;11.40;;;21.90;59.60;;;;;;5071748;28;20028;-66
2022/11/26 02:53:37;;;;;;;;;;;21.90;59.60;;;;;;5034489;28;20072;-67
2022/11/26 02:56:22;;;;;;;21.08;12.25;;;21.80;59.70;;;;;;5071511;28;19950;-66
2022/11/26 02:58:50;;;;;;;20.40;11.70;;;21.80;59.40;;;;;;5038491;28;20493;-66
2022/11/26 03:01:28;;;;;;;19.55;11.30;;;21.80;59.50;;;;;;5027997;28;20040;-67
2022/11/26 03:03:57;;;;;;;21.35;12.70;;;21.90;59.40;;;;;;5046762;28;20473;-67
2022/11/26 03:06:26;;;;;;;18.38;11.80;;;21.80;59.30;;;;;;5071585;28;20032;-66
2022/11/26 03:08:54;;;;;;;20.70;12.73;;;21.80;59.50;;;;;;5051526;28;20552;-66
2022/11/26 03:11:20;;;;;;;19.60;12.25;;;21.80;59.50;;;;;;5051386;28;20029;-66
2022/11/26 03:13:48;;;;;;;19.02;12.18;;;21.70;59.40;;;;;;5053992;28;20033;-66
2022/11/26 03:16:14;;;;;;;21.15;11.68;;;21.70;59.50;;;;;;5062059;28;20025;-66
2022/11/26 03:18:40;;;;;;;23.08;12.73;;;21.70;59.70;;;;;;5033730;28;20041;-66
2022/11/26 03:21:06;;;;;;;23.58;12.65;;;21.70;59.50;;;;;;5051247;28;20116;-66
2022/11/26 03:23:32;;;;;;;20.90;12.30;;;21.70;59.60;;;;;;5067539;28;20029;-66
2022/11/26 03:25:58;;;;;;;20.85;11.60;;;21.80;59.60;;;;;;5035379;28;20044;-66
2022/11/26 03:28:24;;;;;;;18.55;11.82;;;21.70;59.60;;;;;;5062294;28;20046;-66
2022/11/26 03:30:51;;;;;;;20.40;12.43;;;21.60;59.70;;;;;;5035420;28;20025;-66
2022/11/26 03:33:17;;;;;;;19.30;12.40;;;21.60;59.50;;;;;;5068638;28;20041;-66
2022/11/26 03:35:44;;;;;;;19.77;11.38;;;21.60;59.60;;;;;;5039298;28;20517;-66
2022/11/26 03:38:10;;;;;;;18.25;11.00;;;21.70;59.80;;;;;;5068217;28;20687;-66
2022/11/26 03:40:36;;;;;;;23.45;11.82;;;21.80;59.50;;;;;;5071082;28;20056;-67
2022/11/26 03:43:02;;;;;;;19.38;11.68;;;21.70;59.20;;;;;;5068840;28;20029;-66
2022/11/26 03:45:28;;;;;;;20.80;11.73;;;21.80;59.30;;;;;;5066677;28;20031;-66
2022/11/26 03:47:54;;;;;;;21.77;12.15;;;21.90;59.40;;;;;;5070953;28;20537;-66
2022/11/26 03:50:20;;;;;;;22.13;12.88;;;21.90;59.30;;;;;;5069877;28;20388;-66
2022/11/26 03:52:46;;;;;;;20.92;11.93;;;21.80;59.10;;;;;;5068933;28;20037;-67
2022/11/26 03:55:12;;;;;;;18.75;12.55;;;21.90;59.40;;;;;;5064392;28;20033;-66
2022/11/26 03:57:38;;;;;;;20.02;12.65;;;21.80;59.10;;;;;;5053027;28;20857;-66
2022/11/26 04:00:07;;;;;;;20.02;11.68;;;21.80;59.00;;;;;;5017639;28;20129;-66
2022/11/26 04:02:34;;;;;;;19.13;11.57;;;21.90;59.20;;;;;;5074233;28;20068;-67
2022/11/26 04:05:00;;;;;;;21.50;12.50;;;21.80;58.90;;;;;;5075236;28;20366;-66
2022/11/26 04:07:27;;;;;;;21.10;11.88;;;21.90;59.10;;;;;;5071047;28;20128;-66
2022/11/26 04:09:52;;;;;;;22.20;12.77;;;21.90;59.10;;;;;;5074732;28;20086;-67
2022/11/26 04:12:18;;;;;;;20.33;12.55;;;22.00;59.00;;;;;;5073999;28;20044;-66
2022/11/26 04:14:44;;;;;;;19.65;11.63;;;21.90;59.10;;;;;;5057392;28;20037;-66
2022/11/26 04:17:11;;;;;;;19.45;11.57;;;21.90;59.10;;;;;;5057837;28;20095;-67
2022/11/26 04:19:37;;;;;;;18.67;11.60;;;21.90;58.80;;;;;;5055107;28;20025;-66
2022/11/26 04:22:02;;;;;;;19.80;11.70;;;22.00;58.60;;;;;;5023805;28;20036;-67
2022/11/26 04:24:29;;;;;;;16.17;9.90;;;22.00;58.50;;;;;;5074170;28;20033;-66
2022/11/26 04:26:54;;;;;;;15.43;11.00;;;22.00;58.50;;;;;;5072093;28;20558;-67
2022/11/26 04:29:20;;;;;;;22.80;11.70;;;22.10;58.60;;;;;;5066392;28;20041;-66
2022/11/26 04:31:46;;;;;;;16.45;10.45;;;22.10;58.40;;;;;;5068188;28;20032;-67
2022/11/26 04:34:12;;;;;;;20.20;11.55;;;22.10;58.60;;;;;;5062334;28;20501;-66
2022/11/26 04:36:38;;;;;;;18.85;11.75;;;22.10;58.70;;;;;;5057638;28;20129;-66
2022/11/26 04:39:04;;;;;;;19.88;11.27;;;22.10;58.50;;;;;;5073103;28;20082;-66
2022/11/26 04:41:30;;;;;;;15.82;9.57;;;22.10;58.40;;;;;;5056096;28;20029;-65
2022/11/26 04:43:56;;;;;;;16.65;11.20;;;22.20;58.30;;;;;;5056192;28;20060;-65
2022/11/26 04:46:22;;;;;;;16.42;9.02;;;22.20;57.90;;;;;;5063861;28;20116;-67
2022/11/26 04:48:48;;;;;;;20.10;11.85;;;22.40;58.40;;;;;;5021515;28;20095;-67
2022/11/26 04:51:14;;;;;;;17.70;10.30;;;22.30;58.10;;;;;;5070109;28;20449;-67
2022/11/26 04:53:40;;;;;;;17.38;10.38;;;22.30;58.20;;;;;;5053332;28;20052;-66
2022/11/26 04:56:06;;;;;;;17.70;10.80;;;22.30;58.20;;;;;;5051620;28;20454;-66
2022/11/26 04:58:32;;;;;;;16.67;10.60;;;22.10;58.20;;;;;;5060141;28;20037;-65
2022/11/26 05:00:58;;;;;;;16.00;10.38;;;22.30;58.40;;;;;;5067384;28;20047;-64
2022/11/26 05:03:24;;;;;;;17.92;10.23;;;22.10;58.20;;;;;;5072690;28;20033;-66
2022/11/26 05:05:50;;;;;;;13.45;9.93;;;22.10;58.30;;;;;;5071793;28;20057;-66
2022/11/26 05:08:16;;;;;;;18.50;9.85;;;22.10;58.60;;;;;;5053635;28;20071;-66
2022/11/26 05:10:42;;;;;;;15.68;9.90;;;22.00;58.50;;;;;;5053479;28;20060;-66
2022/11/26 05:13:08;;;;;;;16.33;9.90;;;22.00;58.20;;;;;;5070484;28;20036;-66
2022/11/26 05:15:34;;;;;;;17.77;10.35;;;21.90;58.60;;;;;;5070506;28;20032;-67
2022/11/26 05:18:01;;;;;;;17.52;10.77;;;22.00;58.40;;;;;;5035654;28;20037;-67
2022/11/26 05:20:26;;;;;;;15.43;10.73;;;22.00;58.30;;;;;;5058671;28;20575;-67
2022/11/26 05:22:52;;;;;;;15.13;10.10;;;22.00;58.30;;;;;;5072402;28;20119;-67
2022/11/26 05:25:18;;;;;;;13.55;8.20;;;22.00;58.50;;;;;;5066813;28;20108;-66
2022/11/26 05:27:45;;;;;;;17.15;11.23;;;22.00;58.40;;;;;;5061242;28;20036;-66
2022/11/26 05:30:11;;;;;;;17.63;10.32;;;22.20;58.20;;;;;;5064792;28;20630;-66
2022/11/26 05:32:37;;;;;;;19.50;11.63;;;22.10;57.90;;;;;;5073347;28;20379;-66
2022/11/26 05:35:04;;;;;;;17.05;10.57;;;22.10;57.80;;;;;;5072469;28;20031;-67
2022/11/26 05:37:30;;;;;;;13.88;9.48;;;22.20;57.90;;;;;;5073031;28;20489;-66
2022/11/26 05:39:55;;;;;;;15.98;10.73;;;22.20;57.90;;;;;;5072579;28;20059;-66
2022/11/26 05:42:21;;;;;;;17.25;10.18;;;22.20;57.80;;;;;;5073234;28;20052;-67
2022/11/26 05:44:47;;;;;;;17.63;10.60;;;22.20;58.00;;;;;;5071687;28;20029;-65
2022/11/26 05:47:13;;;;;;;17.88;11.27;;;22.20;57.90;;;;;;5072203;28;20032;-66
2022/11/26 05:49:39;;;;;;;16.15;9.65;;;22.10;58.10;;;;;;5057646;28;20035;-65
2022/11/26 05:52:05;;;;;;;13.93;9.93;;;22.10;58.10;;;;;;5071390;28;20530;-67
2022/11/26 05:54:31;;;;;;;17.02;10.30;;;22.10;57.90;;;;;;5031036;28;20116;-65
2022/11/26 05:56:57;;;;;;;15.00;9.77;;;22.10;57.90;;;;;;5072932;28;20485;-66
2022/11/26 05:59:24;;;;;;;17.50;11.13;;;22.10;58.20;;;;;;5071795;28;20038;-67
2022/11/26 06:01:50;;;;;;;15.88;11.25;;;22.10;57.80;;;;;;5062377;28;20043;-66
2022/11/26 06:04:16;;;;;;;21.55;11.82;;;22.20;57.60;;;;;;5052380;28;20041;-67
2022/11/26 06:06:41;;;;;;;14.18;9.48;;;22.10;57.80;;;;;;5069203;28;20040;-67
2022/11/26 06:09:07;;;;;;;19.23;11.63;;;22.00;58.20;;;;;;5072359;28;20052;-66
2022/11/26 06:11:33;;;;;;;18.55;11.57;;;22.10;58.30;;;;;;5072881;28;20048;-66
2022/11/26 06:13:59;;;;;;;17.40;10.95;;;22.10;58.20;;;;;;5061983;28;20077;-66
2022/11/26 06:16:25;;;;;;;18.17;11.18;;;21.80;58.00;;;;;;5066002;28;20476;-67
2022/11/26 06:18:51;;;;;;;20.23;12.45;;;21.90;58.10;;;;;;5052507;28;20108;-66
2022/11/26 06:21:18;;;;;;;16.27;11.05;;;21.90;58.30;;;;;;5053913;28;20107;-66
2022/11/26 06:23:43;;;;;;;18.38;12.13;;;21.90;58.20;;;;;;5062920;28;20116;-67
2022/11/26 06:26:11;;;;;;;17.38;11.13;;;21.90;58.20;;;;;;5060813;28;20116;-67
2022/11/26 06:28:38;;;;;;;18.95;11.27;;;21.80;58.20;;;;;;5037940;28;20402;-67
2022/11/26 06:31:05;;;;;;;18.58;11.95;;;21.80;58.30;;;;;;5070309;28;20044;-66
2022/11/26 06:33:31;;;;;;;21.33;13.60;;;21.70;58.40;;;;;;5068981;28;20741;-67
2022/11/26 06:35:59;;;;;;;18.65;11.05;;;21.60;58.40;;;;;;5009785;28;20040;-66
2022/11/26 06:38:25;;;;;;;20.95;11.27;;;21.70;58.30;;;;;;5069133;28;20489;-66
2022/11/26 06:41:02;;;;;;;18.13;10.93;;;21.70;58.10;;;;;;4986975;28;20036;-66
2022/11/26 06:43:29;;;;;;;18.15;9.73;;;21.80;58.20;;;;;;5065201;28;20032;-66
2022/11/26 06:46:06;;;;;;;18.65;10.73;;;21.80;58.00;;;;;;5061043;28;20058;-67
2022/11/26 06:48:33;;;;;;;20.10;10.88;;;21.90;57.60;;;;;;5057126;28;20070;-66
2022/11/26 06:51:11;;;;;;;15.55;10.10;;;21.90;57.50;;;;;;5038605;28;20041;-66
2022/11/26 06:53:37;;;;;;;21.30;11.68;;;21.90;57.40;;;;;;5028408;28;20095;-66
2022/11/26 06:56:06;;;;;;;19.13;10.77;;;22.00;57.10;;;;;;5056258;28;20033;-70
2022/11/26 06:58:32;;;;;;;15.80;11.07;;;22.00;57.20;;;;;;5057714;28;20032;-73
2022/11/26 07:00:58;;;;;;;13.43;9.68;;;22.00;58.40;;;;;;5071553;28;20047;-68
2022/11/26 07:03:25;;;;;;;14.95;10.05;;;22.00;48.00;;;;;;5058341;28;20041;-69
2022/11/26 07:05:51;;;;;;;13.10;8.38;;;22.00;45.60;;;;;;5026419;28;20044;-69
2022/11/26 07:08:17;;;;;;;12.50;7.75;;;22.10;44.50;;;;;;5052746;28;20091;-71
2022/11/26 07:10:44;;;;;;;16.45;11.60;;;22.10;45.60;;;;;;5053011;28;20480;-70
2022/11/26 07:13:10;;;;;;;13.77;8.57;;;22.30;44.50;;;;;;5053343;28;20040;-72
2022/11/26 07:15:36;;;;;;;15.48;10.82;;;22.20;45.00;;;;;;5071291;28;20025;-70
2022/11/26 07:18:02;;;;;;;14.73;8.57;;;22.30;45.90;;;;;;5071201;28;20025;-69
2022/11/26 07:20:28;;;;;;;15.77;10.80;;;22.40;45.10;;;;;;5064640;28;20060;-70
2022/11/26 07:22:54;;;;;;;10.93;8.40;;;22.40;45.20;;;;;;5060155;28;20426;-71
2022/11/26 07:25:20;;;;;;;12.10;9.07;;;22.30;44.40;;;;;;5055894;28;20101;-68
2022/11/26 07:27:46;;;;;;;16.30;10.57;;;22.40;45.10;;;;;;5067473;28;20108;-72
2022/11/26 07:30:13;;;;;;;15.88;10.82;;;22.50;45.30;;;;;;5071136;28;20487;-73
2022/11/26 07:32:39;;;;;;;15.50;11.00;;;22.40;42.90;;;;;;5068982;28;20059;-74
2022/11/26 07:35:06;;;;;;;18.80;11.35;;;22.40;43.40;;;;;;5025882;28;20076;-70
2022/11/26 07:37:33;;;;;;;19.73;12.18;;;22.60;55.60;;;;;;5012074;28;20648;-71
2022/11/26 07:39:59;;;;;;;22.33;11.73;;;22.80;55.90;;;;;;5028159;28;20402;-72
2022/11/26 07:42:25;;;;;;;22.20;13.07;;;22.70;58.50;;;;;;5009621;28;20080;-72
2022/11/26 07:44:51;;;;;;;16.85;11.50;;;22.70;60.10;;;;;;5008094;28;20069;-71
2022/11/26 07:47:16;;;;;;;13.40;7.03;;;22.70;59.80;;;;;;5011303;28;20040;-69
2022/11/26 07:49:42;;;;;;;17.92;10.18;;;22.70;60.70;;;;;;5010107;28;20411;-70
2022/11/26 07:52:08;;;;;;;17.15;10.65;;;22.90;58.70;;;;;;5008520;28;20431;-71
2022/11/26 07:54:34;;;;;;;16.10;10.20;;;23.00;53.30;;;;;;4991708;28;20045;-70
2022/11/26 07:57:00;;;;;;;4.20;2.80;;;23.00;53.10;;;;;;5008199;28;20140;-68
2022/11/26 07:59:26;;;;;;;18.85;12.07;;;23.00;50.30;;;;;;5009244;28;20145;-69
2022/11/26 08:01:52;;;;;;;16.45;11.25;;;23.00;42.70;;;;;;5012002;28;20171;-69
2022/11/26 08:04:18;;;;;;;16.63;10.35;;;22.90;44.30;;;;;;5011283;28;20031;-71
2022/11/26 08:06:44;;;;;;;15.65;10.30;;;22.90;44.40;;;;;;5049876;28;20471;-72
2022/11/26 08:09:10;;;;;;;17.23;11.35;;;22.90;44.50;;;;;;5061334;28;20036;-70
2022/11/26 08:11:36;;;;;;;17.27;10.88;;;22.80;45.00;;;;;;5056941;28;20051;-71
2022/11/26 08:14:09;;;;;;;17.27;11.27;;;22.90;46.90;;;;;;5060043;28;20474;-70
2022/11/26 08:16:35;;;;;;;;;;;22.70;47.20;;;;;;5024982;28;20429;-72
2022/11/26 08:19:05;;;;;;;14.70;9.15;;;22.60;45.70;;;;;;5034205;28;19920;-70
2022/11/26 08:21:32;;;;;;;14.38;8.75;;;22.40;49.70;;;;;;5035497;28;20143;-69
2022/11/26 08:23:58;;;;;;;15.38;9.45;;;22.60;50.30;;;;;;5038403;28;20074;-67
2022/11/26 08:26:25;;;;;;;14.75;9.65;;;22.50;50.00;;;;;;5040169;28;20040;-69
2022/11/26 08:28:52;;;;;;;14.68;9.10;;;22.60;51.80;;;;;;5042401;28;20037;-69
2022/11/26 08:31:18;;;;;;;12.40;9.05;;;22.40;52.50;;;;;;5043072;28;20055;-69
2022/11/26 08:33:45;;;;;;;14.40;8.63;;;22.40;51.50;;;;;;5045646;28;20025;-68
2022/11/26 08:36:11;;;;;;;18.58;8.88;;;22.50;50.60;;;;;;5036836;28;20040;-69
2022/11/26 08:38:38;;;;;;;13.80;10.15;;;22.40;53.60;;;;;;5036434;28;20068;-69
2022/11/26 08:41:07;;;;;;;16.88;8.35;;;22.60;48.80;;;;;;5042411;28;20445;-70
2022/11/26 08:43:34;;;;;;;16.40;9.57;;;22.70;51.40;;;;;;5042108;28;20072;-67
2022/11/26 08:46:00;;;;;;;14.57;9.55;;;23.00;47.30;;;;;;5044327;28;20414;-68
2022/11/26 08:48:28;;;;;;;13.25;9.02;;;23.00;40.40;;;;;;5036676;28;20048;-68
2022/11/26 08:50:59;;;;;;;12.48;9.07;;;23.10;40.80;;;;;;5044235;28;20377;-68
2022/11/26 08:53:27;;;;;;;16.48;9.63;;;23.20;38.80;;;;;;5061543;28;20438;-67
2022/11/26 08:55:58;;;;;;;15.05;9.52;;;23.20;39.70;;;;;;5061779;28;20036;-69
2022/11/26 08:58:23;;;;;;;14.35;8.73;;;23.10;39.70;;;;;;5060493;28;20091;-67
2022/11/26 09:00:50;;;;;;;15.60;9.43;;;23.10;44.30;;;;;;5041173;28;20032;-69
2022/11/26 09:03:16;;;;;;;17.92;8.50;;;23.20;49.30;;;;;;5057603;28;20035;-71
2022/11/26 09:05:42;;;;;;;14.10;8.60;;;23.00;49.70;;;;;;5064437;28;20458;-70
2022/11/26 09:08:08;;;;;;;10.88;8.25;;;23.00;49.80;;;;;;5069376;28;20416;-68
2022/11/26 09:10:33;;;;;;;14.90;8.60;;;23.00;51.40;;;;;;5070032;28;20029;-69
2022/11/26 09:12:59;;;;;;;11.45;8.15;;;23.10;51.40;;;;;;5047463;28;20804;-69
2022/11/26 09:15:25;;;;;;;11.80;7.18;;;23.20;51.70;;;;;;5067369;28;20369;-69
2022/11/26 09:17:51;;;;;;;12.90;8.88;;;23.20;51.60;;;;;;5057316;28;20469;-69
2022/11/26 09:20:17;;;;;;;12.95;8.90;;;23.20;51.40;;;;;;5065771;28;20107;-68
2022/11/26 09:22:43;;;;;;;12.20;8.05;;;23.10;51.20;;;;;;5067143;28;20096;-70
2022/11/26 09:25:09;;;;;;;11.57;8.00;;;23.20;51.90;;;;;;5051338;28;20051;-69
2022/11/26 09:27:36;;;;;;;13.88;8.73;;;23.00;50.90;;;;;;5063369;28;20402;-69
2022/11/26 09:30:02;;;;;;;12.15;8.43;;;23.10;51.30;;;;;;5068316;28;20489;-68
2022/11/26 09:32:28;;;;;;;10.30;7.38;;;23.10;53.40;;;;;;5055149;28;20873;-69
2022/11/26 09:34:54;;;;;;;13.18;7.93;;;23.10;52.50;;;;;;5060186;28;20025;-69
2022/11/26 09:37:20;;;;;;;10.93;8.18;;;23.20;52.90;;;;;;5061552;28;20064;-68
2022/11/26 09:39:46;;;;;;;11.20;8.13;;;23.10;51.70;;;;;;5062349;28;20037;-69
2022/11/26 09:42:33;;;;;;;11.15;6.90;;;23.10;51.50;;;;;;5044126;28;20094;-68
2022/11/26 09:45:11;;;;;;;13.25;8.30;;;23.00;52.80;;;;;;5053175;28;20025;-68
2022/11/26 09:47:44;;;;;;;15.15;8.55;;;23.10;51.50;;;;;;5058291;28;20162;-69
2022/11/26 09:50:10;;;;;;;13.98;7.82;;;23.10;51.60;;;;;;5063751;28;20028;-68
2022/11/26 09:52:39;;;;;;;13.80;8.23;;;23.10;52.70;;;;;;5068220;28;20440;-68
2022/11/26 09:55:21;;;;;;;12.10;7.15;;;23.10;52.30;;;;;;5053884;28;20028;-68
2022/11/26 09:58:08;;;;;;;13.10;7.72;;;23.10;52.10;;;;;;5052715;28;20037;-68
2022/11/26 10:00:40;;;;;;;12.57;8.82;;;23.10;51.80;;;;;;5069106;28;20052;-68
2022/11/26 10:03:22;;;;;;;12.73;8.27;;;23.10;48.50;;;;;;5061227;28;20103;-70
2022/11/26 10:06:02;;;;;;;11.02;8.05;;;22.80;50.80;;;;;;5058214;28;20041;-69
2022/11/26 10:08:40;;;;;;;13.05;8.65;;;22.90;51.90;;;;;;5052771;28;20060;-69
2022/11/26 10:11:25;;;;;;;10.82;8.70;;;22.80;50.60;;;;;;5058043;28;20044;-69
2022/11/26 10:14:12;;;;;;;12.23;7.47;;;22.70;49.60;;;;;;5063267;28;20630;-69
2022/11/26 10:16:49;;;;;;;13.68;8.57;;;22.50;54.00;;;;;;5059280;28;20028;-70
2022/11/26 10:19:24;;;;;;;12.02;7.85;;;22.60;52.00;;;;;;5061906;28;20041;-70
2022/11/26 10:21:54;;;;;;;14.52;8.13;;;22.50;52.60;;;;;;5056388;28;20025;-69
2022/11/26 10:24:33;;;;;;;13.25;8.32;;;22.50;52.70;;;;;;5063439;28;20025;-69
2022/11/26 10:27:04;;;;;;;12.98;8.63;;;22.30;53.20;;;;;;5065376;28;20111;-70
2022/11/26 10:29:39;;;;;;;17.73;8.27;;;22.20;55.00;;;;;;5065594;28;20086;-69
2022/11/26 10:32:23;;;;;;;11.75;8.43;;;22.40;55.30;;;;;;5068226;28;20469;-71
2022/11/26 10:34:54;;;;;;;12.20;7.63;;;22.40;59.50;;;;;;5068996;28;20036;-71
2022/11/26 10:37:22;;;;;;;10.98;7.65;;;22.40;65.70;;;;;;5061070;28;20131;-73
2022/11/26 10:39:53;;;;;;;13.38;9.82;;;22.50;66.50;;;;;;5068435;28;20051;-70
2022/11/26 10:42:21;;;;;;;11.85;8.27;;;22.60;48.50;;;;;;5067741;28;20040;-70
2022/11/26 10:44:49;;;;;;;13.50;8.65;;;22.60;46.60;;;;;;5059184;28;20040;-69
2022/11/26 10:47:28;;;;;;;13.98;9.07;;;22.70;47.10;;;;;;5060306;28;20123;-69
2022/11/26 10:50:03;;;;;;;12.15;9.05;;;22.90;46.40;;;;;;5070257;28;20128;-70
2022/11/26 10:52:32;;;;;;;26.63;8.85;;;23.00;49.30;;;;;;5051422;28;20036;-70
2022/11/26 10:55:26;;;;;;;14.45;9.73;;;23.00;48.80;;;;;;5069229;28;20036;-69
2022/11/26 10:57:56;;;;;;;16.70;9.48;;;23.20;44.10;;;;;;5022186;28;20048;-69
2022/11/26 11:00:53;;;;;;;13.55;8.90;;;23.20;44.70;;;;;;5063836;28;20419;-69
2022/11/26 11:03:25;;;;;;;11.98;8.82;;;23.30;44.20;;;;;;5067096;28;20036;-70
2022/11/26 11:06:10;;;;;;;10.90;7.65;;;23.30;44.80;;;;;;5056853;28;20526;-69
2022/11/26 11:08:36;;;;;;;10.88;8.25;;;23.30;45.50;;;;;;5060673;28;20052;-67
2022/11/26 11:11:03;;;;;;;10.55;7.97;;;23.30;44.40;;;;;;5062543;28;20123;-68
2022/11/26 11:13:40;;;;;;;13.98;8.68;;;23.30;45.80;;;;;;5062158;28;20172;-68
2022/11/26 11:16:08;;;;;;;12.25;7.57;;;23.20;46.30;;;;;;5062712;28;20127;-69
2022/11/26 11:18:35;;;;;;;14.23;8.68;;;23.30;43.80;;;;;;5060692;28;20028;-67
2022/11/26 11:21:02;;;;;;;10.02;6.93;;;23.30;46.60;;;;;;5061714;28;20043;-70
2022/11/26 11:23:35;;;;;;;11.88;7.57;;;23.50;56.00;;;;;;5042353;28;20029;-69
2022/11/26 11:26:11;;;;;;;12.60;8.32;;;23.60;57.90;;;;;;5058069;28;20029;-69
2022/11/26 11:28:41;;;;;;;12.38;8.00;;;23.80;57.00;;;;;;5045398;28;20036;-68
2022/11/26 11:31:16;;;;;;;12.75;8.20;;;23.80;55.80;;;;;;5059563;28;20020;-67
2022/11/26 11:33:43;;;;;;;11.77;8.07;;;23.80;55.30;;;;;;5070120;28;20063;-70
2022/11/26 11:36:17;;;;;;;12.88;8.52;;;23.70;55.00;;;;;;5051686;28;20134;-69
2022/11/26 11:38:55;;;;;;;11.10;8.23;;;23.70;53.90;;;;;;5063815;28;20029;-69
2022/11/26 11:41:36;;;;;;;15.20;9.57;;;23.60;45.70;;;;;;5050863;28;20111;-69
2022/11/26 11:44:31;;;;;;;12.45;9.20;;;23.70;46.20;;;;;;5059604;28;20029;-70
2022/11/26 11:47:09;;;;;;;13.05;9.13;;;23.60;42.00;;;;;;5065813;28;20111;-68
2022/11/26 11:49:55;;;;;;;11.77;8.27;;;23.50;41.30;;;;;;5070189;28;20040;-68
2022/11/26 11:52:59;;;;;;;13.38;8.70;;;23.50;42.00;;;;;;4988291;28;20050;-68
2022/11/26 11:55:35;;;;;;;;;;;23.40;41.40;;;;;;4974141;28;20039;-67
2022/11/26 11:58:09;;;;;;;11.07;7.68;;;23.20;41.60;;;;;;4973297;28;20446;-70
2022/11/26 12:01:07;;;;;;;12.27;8.05;;;23.30;40.70;;;;;;4984390;28;20042;-69
2022/11/26 12:03:56;;;;;;;12.48;7.88;;;23.30;40.60;;;;;;4949278;28;20047;-68
2022/11/26 12:06:42;;;;;;;10.98;6.28;;;23.10;40.90;;;;;;4957747;28;20110;-67
2022/11/26 12:09:23;;;;;;;11.88;7.18;;;23.20;45.00;;;;;;4993948;28;20113;-67
2022/11/26 12:11:57;;;;;;;16.33;8.63;;;23.20;51.50;;;;;;4990630;28;20092;-67
2022/11/26 12:14:43;;;;;;;16.67;8.68;;;23.30;52.00;;;;;;4995353;28;20046;-67
2022/11/26 12:17:32;;;;;;;12.60;7.45;;;23.40;52.50;;;;;;4999777;28;20053;-67
2022/11/26 12:20:07;;;;;;;12.38;7.22;;;23.30;53.00;;;;;;4964093;28;21760;-68
2022/11/26 12:22:43;;;;;;;12.95;7.60;;;23.40;53.20;;;;;;4990054;28;20050;-67
2022/11/26 12:25:21;;;;;;;13.98;8.00;;;23.20;53.10;;;;;;4985883;28;20051;-69
2022/11/26 12:28:05;;;;;;;11.93;7.45;;;23.20;53.40;;;;;;4983946;28;20077;-69
2022/11/26 12:31:15;;;;;;;14.35;8.38;;;23.10;54.00;;;;;;4997569;28;20049;-69
2022/11/26 12:33:55;;;;;;;13.18;7.30;;;22.90;54.00;;;;;;5011427;28;20050;-70
2022/11/26 12:36:30;;;;;;;13.93;8.23;;;22.90;54.20;;;;;;4995546;28;20038;-70
2022/11/26 12:39:05;;;;;;;11.80;7.43;;;22.70;54.60;;;;;;5014909;28;20058;-70
2022/11/26 12:41:43;;;;;;;16.48;8.40;;;22.60;54.60;;;;;;5051495;28;20033;-70
2022/11/26 12:44:19;;;;;;;12.98;7.68;;;22.70;55.00;;;;;;5038211;28;20510;-70
2022/11/26 12:47:23;;;;;;;11.02;6.85;;;22.60;54.80;;;;;;5037076;28;20068;-70
2022/11/26 12:50:31;;;;;;;11.63;7.90;;;22.60;54.90;;;;;;4951774;28;20568;-70